Terminal Aerodrome Forecast
Issued by NWS

Home | Current Version | Previous Version | Text Only | Print | Product List | Glossary On
Versions: 1 2 3 4 5 6 7 8 9 10 11 12 13
000
FTUS46 KSTO 052320
TAFSCK
TAF
KSCK 052320Z 0600/0624 30012G21KT P6SM FEW250
     FM060600 31009KT P6SM FEW250
     FM062200 29013KT P6SM FEW250=

USA.gov is the U.S. government's official web portal to all federal, state and local government web resources and services.